Time;durP1;ratioP1;P1;durP2;ratioP2;P2;SDS_P1;SDS_P2;PMS_P1;PMS_P2;Temp;Humidity;BMP_temperature;BMP_pressure;BME280_temperature;BME280_humidity;BME280_pressure;Samples;Min_cycle;Max_cycle;Signal;HPM_P1;HPM_P2
2022/05/27 03:29:00;;;;;;;;;;;;;;;8.71;97.35;100169.91;6300452;22;19957;-84
2022/05/27 03:31:36;;;;;;;;;;;;;;;8.67;97.25;100164.75;6307460;22;19915;-84
2022/05/27 03:34:12;;;;;;;;;;;;;;;8.71;97.75;100174.31;6307302;22;19914;-84
2022/05/27 03:36:42;;;;;;;;;;;;;;;8.63;97.64;100174.56;6307687;22;19914;-85
2022/05/27 03:39:18;;;;;;;;;;;;;;;8.66;97.86;100171.81;6307438;22;19911;-85
2022/05/27 03:41:55;;;;;;;;;;;;;;;8.66;97.88;100170.94;6305856;22;20263;-85
2022/05/27 03:44:22;;;;;;;;;;;;;;;8.65;98.29;100174.50;6306587;22;19911;-85
2022/05/27 03:46:49;;;;;;;;;;;;;;;8.70;98.35;100178.72;6306913;22;19943;-86
2022/05/27 03:49:14;;;;;;;;;;;;;;;8.71;98.12;100185.75;6307304;22;19921;-87
2022/05/27 03:51:49;;;;;;;;;;;;;;;8.75;98.59;100177.75;6307348;22;19911;-86
2022/05/27 03:54:15;;;;;;;;;;;;;;;8.69;98.17;100197.28;6307136;22;19914;-85
2022/05/27 03:56:41;;;;;;;;;;;;;;;8.70;98.38;100188.44;6305725;22;20314;-86
2022/05/27 03:59:08;;;;;;;;;;;;;;;8.75;98.34;100183.88;6307291;22;19930;-85
2022/05/27 04:01:35;;;;;;;;;;;;;;;8.66;98.08;100192.06;6307048;22;19922;-85
2022/05/27 04:04:02;;;;;;;;;;;;;;;8.68;98.44;100191.13;6306960;22;19915;-86
2022/05/27 04:06:28;;;;;;;;;;;;;;;8.69;98.41;100186.69;6307536;22;19989;-85
2022/05/27 04:08:57;;;;;;;;;;;;;;;8.79;98.79;100187.31;6307034;22;20339;-84
2022/05/27 04:11:22;;;;;;;;;;;;;;;8.79;98.81;100187.31;6306187;22;19914;-84
2022/05/27 04:13:48;;;;;;;;;;;;;;;8.81;99.10;100186.34;6306960;22;19933;-83
2022/05/27 04:16:13;;;;;;;;;;;;;;;8.87;99.09;100188.81;6306985;22;20271;-84
2022/05/27 04:18:38;;;;;;;;;;;;;;;8.80;99.08;100197.81;6306914;22;19918;-83
2022/05/27 04:21:03;;;;;;;;;;;;;;;8.79;99.27;100193.47;6306960;22;19993;-83
2022/05/27 04:23:29;;;;;;;;;;;;;;;8.73;99.21;100202.44;6307347;22;19911;-83
2022/05/27 04:25:54;;;;;;;;;;;;;;;8.72;99.48;100197.19;6307039;22;19914;-84
2022/05/27 04:28:19;;;;;;;;;;;;;;;8.82;99.52;100203.06;6305463;22;19918;-83
2022/05/27 04:30:45;;;;;;;;;;;;;;;8.77;99.39;100221.69;6306883;22;20368;-83
2022/05/27 04:33:10;;;;;;;;;;;;;;;8.77;99.60;100224.34;6306993;22;19910;-85
2022/05/27 04:35:36;;;;;;;;;;;;;;;8.84;99.74;100219.72;6306604;22;19914;-83
2022/05/27 04:38:01;;;;;;;;;;;;;;;8.80;99.36;100212.81;6306595;22;19971;-83
2022/05/27 04:40:26;;;;;;;;;;;;;;;8.77;99.23;100213.75;6306706;22;19915;-83
2022/05/27 04:42:51;;;;;;;;;;;;;;;8.81;99.34;100223.34;6278161;22;19972;-85
2022/05/27 04:45:19;;;;;;;;;;;;;;;8.73;98.93;100218.28;6306643;22;19915;-85
2022/05/27 07:44:18;;;;;;;;;;;;;;;8.45;96.07;100247.22;6287091;22;19930;-82
2022/05/27 07:46:44;;;;;;;;;;;;;;;8.52;96.28;100243.53;6306996;22;19915;-84
2022/05/27 07:49:09;;;;;;;;;;;;;;;8.47;96.23;100247.19;6307061;22;20271;-83
2022/05/27 07:51:34;;;;;;;;;;;;;;;8.46;96.53;100253.41;6307285;22;19965;-83
2022/05/27 07:54:00;;;;;;;;;;;;;;;8.50;96.92;100250.63;6307332;22;20238;-83
2022/05/27 07:56:25;;;;;;;;;;;;;;;8.44;96.61;100256.06;6307207;22;19918;-84
2022/05/27 07:58:51;;;;;;;;;;;;;;;8.48;96.96;100264.78;6305692;22;19979;-83
2022/05/27 08:01:16;;;;;;;;;;;;;;;8.51;97.01;100262.91;6307114;22;19906;-84
2022/05/27 08:03:42;;;;;;;;;;;;;;;8.44;96.83;100260.47;6279811;22;19911;-83
2022/05/27 08:06:08;;;;;;;;;;;;;;;8.50;97.12;100260.31;6307514;22;19915;-84
2022/05/27 08:08:33;;;;;;;;;;;;;;;8.41;96.99;100264.03;6279473;22;20319;-83
2022/05/27 08:10:59;;;;;;;;;;;;;;;8.82;97.37;100262.09;6279801;22;19911;-84
2022/05/27 08:13:24;;;;;;;;;;;;;;;9.26;98.68;100259.91;6305280;22;19907;-84
2022/05/27 08:15:52;;;;;;;;;;;;;;;8.76;98.10;100253.44;6307412;22;20341;-84
2022/05/27 08:18:17;;;;;;;;;;;;;;;8.66;98.05;100250.19;6306841;22;19917;-84
2022/05/27 08:20:43;;;;;;;;;;;;;;;8.45;97.38;100268.34;6306863;22;19914;-84
2022/05/27 08:23:08;;;;;;;;;;;;;;;8.48;97.58;100260.34;6306997;22;19918;-84
2022/05/27 08:25:36;;;;;;;;;;;;;;;8.45;97.02;100263.06;6307167;22;19914;-84
2022/05/27 08:28:02;;;;;;;;;;;;;;;8.49;97.12;100258.59;6305772;22;19914;-84
2022/05/27 08:30:28;;;;;;;;;;;;;;;8.52;97.01;100263.75;6279403;22;19918;-84
2022/05/27 08:32:54;;;;;;;;;;;;;;;8.48;96.86;100262.13;6307182;22;19918;-84
2022/05/27 08:38:07;;;;;;;;;;;;;;;8.50;97.15;100258.56;6306749;22;19926;-84
2022/05/27 08:40:53;;;;;;;;;;;;;;;8.52;96.99;100259.38;6279367;22;19990;-84
2022/05/27 08:43:35;;;;;;;;;;;;;;;8.45;97.13;100251.66;6277525;22;19917;-84
2022/05/27 08:46:03;;;;;;;;;;;;;;;8.46;97.00;100253.41;6309092;22;19922;-93
2022/05/27 08:48:40;;;;;;;;;;;;;;;8.56;97.32;100264.56;6279128;22;19942;-85
2022/05/27 08:51:18;;;;;;;;;;;;;;;8.49;97.21;100263.88;6279251;22;19934;-85
2022/05/27 08:53:49;;;;;;;;;;;;;;;8.52;97.37;100271.69;6307338;22;19919;-84
2022/05/27 08:59:28;;;;;;;;;;;;;;;8.54;97.54;100277.81;6305422;22;19918;-82
2022/05/27 09:02:02;;;;;;;;;;;;;;;8.56;97.63;100285.69;6279302;22;19915;-82
2022/05/27 09:04:40;;;;;;;;;;;;;;;8.46;97.32;100274.53;6306472;22;19915;-84
2022/05/27 09:07:12;;;;;;;;;;;;;;;8.56;97.46;100273.34;6279175;22;19942;-83
2022/05/27 09:09:37;;;;;;;;;;;;;;;8.47;97.28;100274.47;6306359;22;19941;-84
2022/05/27 09:12:06;;;;;;;;;;;;;;;8.49;97.56;100270.00;6272467;22;19915;-84
2022/05/27 09:14:31;;;;;;;;;;;;;;;8.41;97.00;100277.25;6304835;22;20223;-84
2022/05/27 09:17:04;;;;;;;;;;;;;;;8.42;97.37;100271.03;6279107;22;19915;-84
2022/05/27 09:19:29;;;;;;;;;;;;;;;8.47;97.26;100273.59;6278803;22;19989;-84
2022/05/27 09:22:01;;;;;;;;;;;;;;;8.39;97.26;100279.03;6279023;22;19953;-83
2022/05/27 09:24:26;;;;;;;;;;;;;;;8.51;97.63;100276.13;6278952;22;20405;-84
2022/05/27 09:27:24;;;;;;;;;;;;;;;8.49;97.46;100274.44;6306850;22;19945;-84
2022/05/27 09:29:55;;;;;;;;;;;;;;;8.50;97.78;100281.44;6210801;22;19919;-84
2022/05/27 09:32:25;;;;;;;;;;;;;;;8.42;97.40;100280.75;6278795;22;20337;-84
2022/05/27 09:34:51;;;;;;;;;;;;;;;8.44;97.62;100278.94;6272128;22;19921;-85
2022/05/27 09:37:29;;;;;;;;;;;;;;;8.49;97.53;100282.38;6272321;22;19964;-84
2022/05/27 09:39:55;;;;;;;;;;;;;;;8.38;97.29;100282.59;6279458;22;19960;-85
2022/05/27 09:42:24;;;;;;;;;;;;;;;8.47;97.34;100277.13;6271527;22;19932;-84
2022/05/27 09:44:52;;;;;;;;;;;;;;;8.37;96.83;100272.94;6277264;22;19915;-83
2022/05/27 09:47:17;;;;;;;;;;;;;;;8.42;97.26;100280.75;6279060;22;20400;-84
2022/05/27 09:49:45;;;;;;;;;;;;;;;8.54;97.50;100278.69;6306327;22;19915;-84
2022/05/27 09:52:10;;;;;;;;;;;;;;;8.46;97.32;100274.53;6306400;22;19911;-85
2022/05/27 09:54:59;;;;;;;;;;;;;;;8.46;97.42;100280.66;6306617;22;20280;-84
2022/05/27 09:57:30;;;;;;;;;;;;;;;8.43;97.50;100280.75;6306149;22;19911;-84
2022/05/27 10:00:00;;;;;;;;;;;;;;;8.50;97.52;100281.44;6277610;22;19911;-84
2022/05/27 10:02:25;;;;;;;;;;;;;;;8.55;97.74;100279.53;6279022;22;19919;-84
2022/05/27 10:05:14;;;;;;;;;;;;;;;8.41;97.31;100276.34;6278927;22;19915;-84
2022/05/27 10:07:42;;;;;;;;;;;;;;;8.51;97.73;100278.75;6289619;22;19922;-84
2022/05/27 10:10:16;;;;;;;;;;;;;;;8.48;97.18;100278.84;6278871;22;19911;-84
2022/05/27 10:12:42;;;;;;;;;;;;;;;8.42;97.29;100267.53;6279078;22;20343;-84
2022/05/27 10:15:07;;;;;;;;;;;;;;;8.53;97.63;100271.66;6277272;22;19911;-84
2022/05/27 10:17:36;;;;;;;;;;;;;;;8.39;97.23;100267.63;6278614;22;20377;-84
2022/05/27 10:20:24;;;;;;;;;;;;;;;8.40;97.51;100275.50;6278738;22;19915;-84
2022/05/27 10:23:01;;;;;;;;;;;;;;;8.42;97.29;100268.41;6262697;22;19941;-84
2022/05/27 10:25:37;;;;;;;;;;;;;;;8.52;97.54;100269.94;6278805;22;19911;-84
2022/05/27 10:28:04;;;;;;;;;;;;;;;8.44;97.08;100271.91;6277008;22;19915;-84
2022/05/27 10:30:31;;;;;;;;;;;;;;;8.43;97.14;100267.53;6278806;22;20380;-84
2022/05/27 10:33:12;;;;;;;;;;;;;;;8.53;97.36;100276.94;6279584;22;19917;-84
2022/05/27 10:35:38;;;;;;;;;;;;;;;8.49;97.56;100280.56;6280536;22;19911;-84
2022/05/27 10:38:15;;;;;;;;;;;;;;;8.50;97.77;100277.03;6280848;22;19989;-84
2022/05/27 10:40:40;;;;;;;;;;;;;;;8.39;97.51;100276.41;6280526;22;20372;-84
2022/05/27 10:43:24;;;;;;;;;;;;;;;8.53;97.90;100274.28;6278751;22;19911;-84
2022/05/27 10:45:52;;;;;;;;;;;;;;;8.40;97.47;100274.66;6256992;22;19915;-84
2022/05/27 10:48:27;;;;;;;;;;;;;;;8.50;97.95;100277.03;6249885;22;20278;-84
2022/05/27 10:50:52;;;;;;;;;;;;;;;8.44;97.62;100271.91;6249784;22;19938;-84
2022/05/27 10:53:30;;;;;;;;;;;;;;;8.43;97.82;100280.75;6250111;22;19911;-84
2022/05/27 10:56:14;;;;;;;;;;;;;;;8.59;98.30;100273.28;6249733;22;19911;-84
2022/05/27 11:02:04;;;;;;;;;;;;;;;8.57;98.01;100277.75;6276793;22;19933;-84
2022/05/27 11:04:47;;;;;;;;;;;;;;;8.59;98.20;100275.06;6276810;22;19918;-85
2022/05/27 11:07:21;;;;;;;;;;;;;;;8.60;98.17;100284.69;6250106;22;20208;-84
2022/05/27 11:10:05;;;;;;;;;;;;;;;8.53;97.90;100276.06;6249521;22;20328;-84
2022/05/27 11:15:33;;;;;;;;;;;;;;;8.59;98.55;100278.56;6276975;22;19918;-85
2022/05/27 11:18:15;;;;;;;;;;;;;;;8.64;98.50;100279.28;6249415;22;19912;-84
2022/05/27 11:20:49;;;;;;;;;;;;;;;8.52;98.61;100277.84;6249406;22;19911;-84
2022/05/27 11:23:33;;;;;;;;;;;;;;;8.60;98.92;100277.66;6277056;22;20305;-84
2022/05/27 11:26:15;;;;;;;;;;;;;;;8.56;98.49;100270.72;6249336;22;19949;-84
2022/05/27 11:28:40;;;;;;;;;;;;;;;8.54;98.89;100268.09;6247864;22;19911;-84
2022/05/27 11:31:13;;;;;;;;;;;;;;;8.50;98.59;100266.47;6276562;22;20322;-84
2022/05/27 11:33:58;;;;;;;;;;;;;;;8.58;98.75;100268.03;6249278;22;19919;-84
2022/05/27 11:36:35;;;;;;;;;;;;;;;8.46;98.39;100267.44;6275643;22;19937;-84
2022/05/27 11:39:13;;;;;;;;;;;;;;;8.53;98.43;100266.38;6249268;22;20279;-84
2022/05/27 11:41:54;;;;;;;;;;;;;;;8.53;98.50;100271.66;6276331;22;19918;-84
2022/05/27 11:44:27;;;;;;;;;;;;;;;8.53;98.69;100270.78;6251483;22;21351;-84
2022/05/27 11:46:58;;;;;;;;;;;;;;;8.51;98.36;100269.97;6307649;22;19915;-84
2022/05/27 11:49:32;;;;;;;;;;;;;;;8.45;98.58;100272.78;6280248;22;19911;-83
2022/05/27 11:52:21;;;;;;;;;;;;;;;8.59;99.01;100277.69;6272878;22;20011;-84
2022/05/27 11:54:57;;;;;;;;;;;;;;;8.48;98.92;100273.56;6307151;22;20305;-83
2022/05/27 11:57:46;;;;;;;;;;;;;;;8.53;99.25;100269.00;6272709;22;20341;-84
2022/05/27 12:00:16;;;;;;;;;;;;;;;8.47;99.11;100263.91;6278098;22;19917;-83
2022/05/27 12:02:48;;;;;;;;;;;;;;;8.61;99.58;100270.59;6279549;22;20311;-84
2022/05/27 12:05:19;;;;;;;;;;;;;;;8.47;99.49;100270.94;6279770;22;19911;-84
2022/05/27 12:08:05;;;;;;;;;;;;;;;8.53;99.56;100269.00;6306951;22;19989;-84
2022/05/27 12:10:30;;;;;;;;;;;;;;;8.52;99.55;100262.00;6307072;22;19911;-84
2022/05/27 12:13:20;;;;;;;;;;;;;;;8.50;99.69;100255.03;6306362;22;19918;-84
2022/05/27 12:15:52;;;;;;;;;;;;;;;8.58;99.78;100254.81;6279659;22;19911;-84
2022/05/27 12:18:27;;;;;;;;;;;;;;;8.47;99.39;100261.28;6279664;22;20323;-84
2022/05/27 12:20:53;;;;;;;;;;;;;;;8.52;99.39;100255.84;6279520;22;20340;-85
2022/05/27 12:23:20;;;;;;;;;;;;;;;8.40;98.92;100251.72;6279994;22;19911;-84
2022/05/27 12:25:48;;;;;;;;;;;;;;;8.45;99.26;100247.22;6306922;22;19911;-84
2022/05/27 12:28:19;;;;;;;;;;;;;;;8.45;99.29;100241.94;6278295;22;20002;-84
2022/05/27 12:30:45;;;;;;;;;;;;;;;8.37;99.33;100230.69;6279539;22;20230;-84
2022/05/27 12:33:13;;;;;;;;;;;;;;;8.47;99.40;100234.88;6279877;22;19922;-84
2022/05/27 12:35:39;;;;;;;;;;;;;;;8.49;99.46;100238.31;6279505;22;19946;-87
2022/05/27 12:38:06;;;;;;;;;;;;;;;8.51;99.89;100233.84;6279187;22;19910;-84
2022/05/27 12:40:50;;;;;;;;;;;;;;;8.50;99.74;100225.97;6272714;22;19914;-85
2022/05/27 12:43:16;;;;;;;;;;;;;;;8.58;100.00;100244.25;6278010;22;19965;-84
2022/05/27 12:45:44;;;;;;;;;;;;;;;8.45;99.80;100241.09;6279134;22;20541;-85
2022/05/27 12:48:10;;;;;;;;;;;;;;;8.50;100.00;100240.06;6306922;22;20009;-84
2022/05/27 12:50:36;;;;;;;;;;;;;;;8.53;99.99;100242.59;6279088;22;20314;-85
2022/05/27 12:53:25;;;;;;;;;;;;;;;8.51;100.00;100241.78;6279241;22;19989;-84
2022/05/27 13:01:41;;;;;;;;;;;;;;;8.58;100.00;100241.63;6307094;22;20247;-85
2022/05/27 13:04:06;;;;;;;;;;;;;;;8.54;100.00;100238.19;6279581;22;19911;-85
2022/05/27 13:06:32;;;;;;;;;;;;;;;8.66;100.00;100240.50;6279299;22;20250;-85
2022/05/27 13:09:02;;;;;;;;;;;;;;;8.64;100.00;100236.16;6278937;22;20332;-84
2022/05/27 13:11:31;;;;;;;;;;;;;;;8.56;100.00;100227.59;6306439;22;20216;-85
2022/05/27 13:14:06;;;;;;;;;;;;;;;8.63;100.00;100230.03;6277520;22;20197;-84
2022/05/27 13:16:43;;;;;;;;;;;;;;;8.61;100.00;100223.03;6279444;22;19943;-84
2022/05/27 13:19:18;;;;;;;;;;;;;;;8.65;100.00;100216.78;6279024;22;19915;-85
2022/05/27 13:21:52;;;;;;;;;;;;;;;8.70;100.00;100218.38;6272042;22;19925;-84
2022/05/27 13:24:17;;;;;;;;;;;;;;;8.64;100.00;100212.41;6279069;22;20052;-85
2022/05/27 13:26:51;;;;;;;;;;;;;;;8.67;100.00;100202.59;6279092;22;19955;-85
2022/05/27 13:29:25;;;;;;;;;;;;;;;8.63;100.00;100206.25;6277421;22;19915;-85
2022/05/27 13:32:11;;;;;;;;;;;;;;;8.66;100.00;100213.22;6278988;22;19964;-85
2022/05/27 13:34:39;;;;;;;;;;;;;;;8.68;100.00;100217.56;6257336;22;19911;-85
2022/05/27 13:37:07;;;;;;;;;;;;;;;8.67;100.00;100204.38;6278856;22;19915;-85
2022/05/27 13:39:38;;;;;;;;;;;;;;;8.73;100.00;100198.94;6279110;22;19911;-85
2022/05/27 13:42:03;;;;;;;;;;;;;;;8.65;100.00;100207.06;6279100;22;19921;-86
2022/05/27 13:44:29;;;;;;;;;;;;;;;8.66;100.00;100205.28;6277110;22;19919;-84
2022/05/27 13:46:57;;;;;;;;;;;;;;;8.71;100.00;100198.97;6306277;22;19990;-86
2022/05/27 13:49:28;;;;;;;;;;;;;;;8.69;100.00;100198.13;6306411;22;19914;-83
2022/05/27 13:51:54;;;;;;;;;;;;;;;8.67;100.00;100197.31;6277007;22;19914;-85
2022/05/27 13:54:29;;;;;;;;;;;;;;;8.76;100.00;100188.28;6279081;22;19922;-85
2022/05/27 13:56:57;;;;;;;;;;;;;;;8.68;100.00;100195.53;6306231;22;19933;-85
2022/05/27 13:59:22;;;;;;;;;;;;;;;8.69;100.00;100179.63;6277203;22;20346;-85
2022/05/27 14:01:54;;;;;;;;;;;;;;;8.77;100.00;100189.13;6278970;22;19906;-85
2022/05/27 14:04:29;;;;;;;;;;;;;;;8.78;100.00;100175.03;6278913;22;19922;-85
2022/05/27 14:06:54;;;;;;;;;;;;;;;8.71;100.00;100171.66;6307183;22;19950;-85
2022/05/27 14:09:21;;;;;;;;;;;;;;;8.82;100.00;100172.25;6308347;22;19984;-85
2022/05/27 14:11:51;;;;;;;;;;;;;;;8.82;100.00;100166.06;6281160;22;20231;-84
2022/05/27 14:14:21;;;;;;;;;;;;;;;8.75;100.00;100154.81;6279100;22;19918;-84
2022/05/27 14:16:47;;;;;;;;;;;;;;;8.77;100.00;100160.06;6280953;22;20003;-85
2022/05/27 14:19:26;;;;;;;;;;;;;;;8.86;100.00;100167.72;6280623;22;20323;-85
2022/05/27 14:24:46;;;;;;;;;;;;;;;8.85;100.00;100156.28;6308249;22;19917;-85
2022/05/27 14:27:18;;;;;;;;;;;;;;;8.76;100.00;100153.94;6280579;22;19990;-85
2022/05/27 14:29:44;;;;;;;;;;;;;;;8.75;100.00;100157.47;6272224;22;20235;-86
2022/05/27 14:32:15;;;;;;;;;;;;;;;8.84;100.00;100153.69;6273787;22;19915;-85
2022/05/27 14:34:41;;;;;;;;;;;;;;;8.81;100.00;100152.00;6280618;22;19951;-84
2022/05/27 14:37:19;;;;;;;;;;;;;;;8.72;100.00;100160.19;6280367;22;20232;-86
2022/05/27 14:39:45;;;;;;;;;;;;;;;8.79;100.00;100145.91;6308318;22;19973;-84
2022/05/27 14:42:10;;;;;;;;;;;;;;;8.86;100.00;100136.88;6273059;22;19916;-85
2022/05/27 14:44:40;;;;;;;;;;;;;;;8.77;99.96;100136.28;6306152;22;19915;-86
2022/05/27 14:47:07;;;;;;;;;;;;;;;8.71;100.00;100138.22;6307894;22;19941;-85
2022/05/27 14:49:47;;;;;;;;;;;;;;;8.82;100.00;100135.25;6280388;22;19934;-85
2022/05/27 14:52:18;;;;;;;;;;;;;;;8.71;100.00;100132.03;6280367;22;19994;-86
2022/05/27 14:54:45;;;;;;;;;;;;;;;8.74;100.00;100137.22;6280285;22;20315;-85
2022/05/27 14:57:16;;;;;;;;;;;;;;;8.80;100.00;100128.28;6280365;22;19960;-85
2022/05/27 15:00:05;;;;;;;;;;;;;;;8.68;99.98;100119.81;6278707;22;19967;-85
2022/05/27 15:02:32;;;;;;;;;;;;;;;8.81;100.00;100116.81;6264297;22;19911;-86
2022/05/27 15:05:00;;;;;;;;;;;;;;;8.78;100.00;100128.31;6280617;22;19983;-87
2022/05/27 15:07:30;;;;;;;;;;;;;;;8.80;100.00;100121.19;6280193;22;19980;-86
2022/05/27 15:09:58;;;;;;;;;;;;;;;8.80;100.00;100115.06;6280488;22;20002;-85
2022/05/27 15:12:26;;;;;;;;;;;;;;;8.82;100.00;100114.13;6280092;22;20262;-85
2022/05/27 15:14:51;;;;;;;;;;;;;;;8.69;100.00;100110.09;6278753;22;19911;-85
2022/05/27 15:17:20;;;;;;;;;;;;;;;8.83;100.00;100114.97;6278567;22;19917;-84
2022/05/27 15:19:47;;;;;;;;;;;;;;;8.93;100.00;100118.19;6306862;22;19922;-85
2022/05/27 15:22:13;;;;;;;;;;;;;;;8.82;100.00;100114.13;6306389;22;19946;-84
2022/05/27 15:24:59;;;;;;;;;;;;;;;8.86;100.00;100099.88;6279885;22;19911;-85
2022/05/27 15:33:08;;;;;;;;;;;;;;;8.73;100.00;100093.25;6306984;22;20288;-84
2022/05/27 15:35:44;;;;;;;;;;;;;;;8.79;100.00;100093.06;6278917;22;20421;-84
2022/05/27 15:38:11;;;;;;;;;;;;;;;8.79;100.00;100093.06;6278742;22;20226;-85
2022/05/27 15:40:41;;;;;;;;;;;;;;;8.81;100.00;100091.22;6306755;22;19911;-86
2022/05/27 15:43:14;;;;;;;;;;;;;;;8.77;100.00;100088.72;6278343;22;19980;-86
2022/05/27 15:45:39;;;;;;;;;;;;;;;8.70;100.00;100082.78;6306558;22;19921;-86
2022/05/27 15:48:05;;;;;;;;;;;;;;;8.82;100.00;100087.69;6306457;22;20296;-86
2022/05/27 15:50:30;;;;;;;;;;;;;;;8.68;99.76;100084.56;6279478;22;19914;-85
2022/05/27 15:52:55;;;;;;;;;;;;;;;8.78;99.93;100080.75;6306601;22;19915;-85
2022/05/27 15:55:21;;;;;;;;;;;;;;;8.83;100.00;100080.63;6306910;22;19984;-86
2022/05/27 15:57:46;;;;;;;;;;;;;;;8.70;99.70;100074.84;6278934;22;20531;-91
2022/05/27 16:00:12;;;;;;;;;;;;;;;8.71;99.94;100074.81;6277430;22;20325;-86
2022/05/27 16:02:37;;;;;;;;;;;;;;;8.75;99.78;100072.06;6306642;22;19911;-86
2022/05/27 16:05:06;;;;;;;;;;;;;;;8.68;99.75;100068.72;6306943;22;20331;-85
2022/05/27 16:07:31;;;;;;;;;;;;;;;8.78;99.89;100064.03;6279588;22;19972;-85
2022/05/27 16:09:57;;;;;;;;;;;;;;;8.82;99.91;100061.25;6307055;22;19919;-85
2022/05/27 16:12:22;;;;;;;;;;;;;;;8.68;99.81;100064.31;6307234;22;19918;-86
2022/05/27 16:14:47;;;;;;;;;;;;;;;8.74;100.00;100060.63;6305800;22;19911;-86
2022/05/27 16:20:00;;;;;;;;;;;;;;;8.74;99.43;100063.25;6306026;22;20460;-85
2022/05/27 16:22:25;;;;;;;;;;;;;;;8.81;99.39;100070.09;6279075;22;19907;-85
2022/05/27 16:24:51;;;;;;;;;;;;;;;8.84;99.46;100067.34;6279097;22;19941;-85
2022/05/27 16:27:17;;;;;;;;;;;;;;;8.72;99.31;100075.66;6279193;22;19926;-86
2022/05/27 16:29:42;;;;;;;;;;;;;;;8.75;99.43;100075.56;6277358;22;20017;-86
2022/05/27 16:32:08;;;;;;;;;;;;;;;8.80;99.39;100062.22;6305787;22;19911;-86
2022/05/27 16:34:34;;;;;;;;;;;;;;;8.68;99.12;100068.72;6279751;22;20337;-85
2022/05/27 16:36:59;;;;;;;;;;;;;;;8.74;99.53;100073.81;6305483;22;20338;-85
2022/05/27 16:39:24;;;;;;;;;;;;;;;8.87;99.70;100072.56;6305580;22;19915;-85
2022/05/27 16:41:51;;;;;;;;;;;;;;;8.72;99.33;100070.38;6306126;22;20339;-85
2022/05/27 16:44:16;;;;;;;;;;;;;;;8.78;99.30;100070.19;6305066;22;19950;-86
2022/05/27 16:46:42;;;;;;;;;;;;;;;8.82;99.56;100063.91;6277805;22;20238;-86
2022/05/27 16:49:08;;;;;;;;;;;;;;;8.80;99.39;100071.00;6306403;22;19964;-86
2022/05/27 16:51:33;;;;;;;;;;;;;;;8.69;99.46;100066.03;6306089;22;20293;-86
2022/05/27 16:53:59;;;;;;;;;;;;;;;8.77;99.50;100064.94;6278258;22;19997;-86
2022/05/27 16:56:24;;;;;;;;;;;;;;;8.79;99.45;100064.00;6306188;22;19982;-87
2022/05/27 16:58:51;;;;;;;;;;;;;;;8.76;99.05;100061.44;6277541;22;19915;-86
2022/05/27 17:01:17;;;;;;;;;;;;;;;8.81;99.30;100056.88;6305922;22;19964;-86
2022/05/27 17:03:42;;;;;;;;;;;;;;;8.79;99.32;100056.06;6305888;22;19915;-85
2022/05/27 17:06:11;;;;;;;;;;;;;;;8.79;99.25;100055.19;6279006;22;19950;-85
2022/05/27 17:08:36;;;;;;;;;;;;;;;8.73;99.00;100053.63;6277416;22;20000;-85
2022/05/27 17:11:01;;;;;;;;;;;;;;;8.74;99.08;100052.69;6305614;22;19993;-85
2022/05/27 17:13:26;;;;;;;;;;;;;;;8.81;99.14;100048.09;6304544;22;19910;-86
2022/05/27 17:15:52;;;;;;;;;;;;;;;8.71;98.84;100044.84;6298699;22;19990;-86
2022/05/27 17:18:17;;;;;;;;;;;;;;;8.69;98.84;100047.53;6305475;22;19943;-85
2022/05/27 17:20:42;;;;;;;;;;;;;;;8.82;99.20;100044.53;6278668;22;19918;-85
2022/05/27 17:23:08;;;;;;;;;;;;;;;8.84;99.21;100047.97;6278733;22;20415;-86
2022/05/27 17:25:33;;;;;;;;;;;;;;;8.73;98.99;100035.97;6278269;22;19915;-86
2022/05/27 17:27:59;;;;;;;;;;;;;;;8.80;98.96;100049.84;6278494;22;20238;-85
2022/05/27 17:30:24;;;;;;;;;;;;;;;8.87;99.17;100043.47;6304226;22;20048;-86
2022/05/27 17:32:49;;;;;;;;;;;;;;;8.88;98.70;100046.97;6279131;22;20335;-86
2022/05/27 17:35:15;;;;;;;;;;;;;;;8.81;98.67;100043.66;6305560;22;19914;-86
2022/05/27 17:37:44;;;;;;;;;;;;;;;8.82;98.44;100045.41;6277762;22;20323;-86
2022/05/27 17:40:12;;;;;;;;;;;;;;;8.85;98.92;100034.72;6278229;22;20250;-86
2022/05/27 17:42:37;;;;;;;;;;;;;;;8.77;98.36;100028.81;6308030;22;19961;-86
2022/05/27 17:45:05;;;;;;;;;;;;;;;8.79;98.45;100034.94;6305748;22;20150;-86
2022/05/27 17:53:00;;;;;;;;;;;;;;;8.83;98.47;100035.69;6307385;22;19919;-85
2022/05/27 17:55:26;;;;;;;;;;;;;;;8.77;98.28;100039.38;6307563;22;19996;-86
2022/05/27 17:57:51;;;;;;;;;;;;;;;8.79;98.42;100044.63;6307050;22;19915;-86
2022/05/27 18:00:18;;;;;;;;;;;;;;;8.85;98.58;100033.88;6305691;22;19950;-86
2022/05/27 18:02:43;;;;;;;;;;;;;;;8.77;98.14;100036.75;6280651;22;19915;-87
2022/05/27 18:05:10;;;;;;;;;;;;;;;8.77;98.46;100035.88;6280913;22;20344;-87
2022/05/27 18:07:35;;;;;;;;;;;;;;;8.81;98.34;100037.53;6307444;22;20242;-84
2022/05/27 18:10:00;;;;;;;;;;;;;;;8.78;98.19;100046.41;6308181;22;19911;-92
2022/05/27 18:12:28;;;;;;;;;;;;;;;8.69;97.96;100038.75;6280294;22;19942;-84
2022/05/27 18:14:55;;;;;;;;;;;;;;;8.78;98.10;100043.75;6278694;22;19993;-84
2022/05/27 18:17:20;;;;;;;;;;;;;;;8.78;98.10;100042.91;6280009;22;20299;-85
2022/05/27 18:19:46;;;;;;;;;;;;;;;8.70;97.92;100037.88;6279098;22;19922;-84
2022/05/27 18:22:11;;;;;;;;;;;;;;;8.72;98.17;100044.81;6279881;22;19946;-84
2022/05/27 18:24:36;;;;;;;;;;;;;;;8.85;98.13;100050.56;6254985;22;19915;-84
2022/05/27 18:27:02;;;;;;;;;;;;;;;8.75;97.83;100043.00;6281142;22;20378;-84
2022/05/27 18:29:31;;;;;;;;;;;;;;;8.79;98.05;100044.63;6277466;22;19915;-85
2022/05/27 18:31:58;;;;;;;;;;;;;;;8.83;98.13;100046.28;6279652;22;19921;-84
2022/05/27 18:34:28;;;;;;;;;;;;;;;8.72;97.87;100039.53;6307793;22;19938;-85
2022/05/27 18:36:54;;;;;;;;;;;;;;;8.68;97.85;100039.66;6306458;22;19915;-85
2022/05/27 18:39:19;;;;;;;;;;;;;;;8.77;98.13;100042.03;6280516;22;20304;-85
2022/05/27 18:41:45;;;;;;;;;;;;;;;8.70;97.81;100043.16;6279249;22;19914;-84
2022/05/27 18:44:10;;;;;;;;;;;;;;;8.71;97.85;100044.84;6270955;22;20352;-84
2022/05/27 18:46:36;;;;;;;;;;;;;;;8.81;98.12;100043.66;6307826;22;19962;-84
2022/05/27 18:49:02;;;;;;;;;;;;;;;8.70;97.79;100043.16;6280115;22;19911;-86
2022/05/27 18:51:27;;;;;;;;;;;;;;;8.75;97.95;100038.56;6279719;22;19942;-85
2022/05/27 18:53:55;;;;;;;;;;;;;;;8.74;98.12;100039.47;6279463;22;19911;-83
2022/05/27 18:56:21;;;;;;;;;;;;;;;8.69;97.98;100039.63;6278694;22;19917;-85
2022/05/27 18:58:46;;;;;;;;;;;;;;;8.70;98.03;100040.50;6278448;22;19959;-82
2022/05/27 19:01:11;;;;;;;;;;;;;;;8.77;98.29;100041.16;6306562;22;19915;-83
2022/05/27 19:03:36;;;;;;;;;;;;;;;8.81;98.37;100041.03;6307046;22;19911;-84
2022/05/27 19:06:02;;;;;;;;;;;;;;;8.74;98.06;100042.13;6306592;22;20254;-85
2022/05/27 19:08:28;;;;;;;;;;;;;;;8.73;98.34;100053.63;6306631;22;19942;-85
2022/05/27 19:10:54;;;;;;;;;;;;;;;8.72;98.58;100052.72;6306901;22;19964;-85
2022/05/27 19:13:20;;;;;;;;;;;;;;;8.66;98.12;100052.06;6277693;22;20360;-83
2022/05/27 19:15:45;;;;;;;;;;;;;;;8.70;98.23;100043.16;6278064;22;19943;-86
2022/05/27 19:18:11;;;;;;;;;;;;;;;8.84;98.54;100048.88;6300345;22;19910;-83
2022/05/27 19:23:23;;;;;;;;;;;;;;;8.77;98.56;100046.47;6306887;22;19918;-84
2022/05/27 19:25:56;;;;;;;;;;;;;;;8.83;98.16;100051.56;6279228;22;20373;-84
2022/05/27 19:28:26;;;;;;;;;;;;;;;8.78;98.20;100049.06;6305584;22;19915;-85
2022/05/27 19:30:52;;;;;;;;;;;;;;;8.82;98.61;100055.97;6306700;22;19918;-83
2022/05/27 19:33:18;;;;;;;;;;;;;;;8.64;98.16;100059.19;6278918;22;19915;-84
2022/05/27 19:35:45;;;;;;;;;;;;;;;8.67;98.38;100054.66;6278766;22;19915;-81
2022/05/27 19:38:18;;;;;;;;;;;;;;;8.76;98.60;100058.81;6307209;22;19917;-82
2022/05/27 19:40:43;;;;;;;;;;;;;;;8.77;98.54;100057.88;6279428;22;19992;-81
2022/05/27 19:43:10;;;;;;;;;;;;;;;8.73;98.68;100057.13;6305876;22;19982;-81
2022/05/27 19:45:36;;;;;;;;;;;;;;;8.78;98.73;100064.03;6306765;22;19923;-82
2022/05/27 19:48:11;;;;;;;;;;;;;;;8.70;98.31;100067.78;6279909;22;19972;-83
2022/05/27 19:50:36;;;;;;;;;;;;;;;8.77;98.73;100055.22;6278697;22;19942;-84
2022/05/27 19:53:04;;;;;;;;;;;;;;;8.83;98.47;100059.47;6306296;22;19919;-82
2022/05/27 19:55:29;;;;;;;;;;;;;;;8.68;98.16;100064.31;6279234;22;20390;-83
2022/05/27 20:00:40;;;;;;;;;;;;;;;8.66;98.34;100054.72;6307102;22;19957;-83